sensor_id;sensor_type;location;lat;lon;timestamp;pressure;altitude;pressure_sealevel;temperature
23208;BMP180;11773;52.570;13.052;2023-07-24T00:02:05;100343.00;;;25.10
23208;BMP180;11773;52.570;13.052;2023-07-24T00:04:34;100346.00;;;25.10
23208;BMP180;11773;52.570;13.052;2023-07-24T00:07:04;100350.00;;;25.10
23208;BMP180;11773;52.570;13.052;2023-07-24T00:09:33;100338.00;;;25.10
23208;BMP180;11773;52.570;13.052;2023-07-24T00:12:03;100339.00;;;25.10
23208;BMP180;11773;52.570;13.052;2023-07-24T00:14:33;100331.00;;;25.00
23208;BMP180;11773;52.570;13.052;2023-07-24T00:17:02;100335.00;;;25.00
23208;BMP180;11773;52.570;13.052;2023-07-24T00:19:32;100331.00;;;25.00
23208;BMP180;11773;52.570;13.052;2023-07-24T00:22:02;100333.00;;;25.00
23208;BMP180;11773;52.570;13.052;2023-07-24T00:24:32;100336.00;;;25.00
23208;BMP180;11773;52.570;13.052;2023-07-24T00:27:02;100320.00;;;25.00
23208;BMP180;11773;52.570;13.052;2023-07-24T00:29:31;100330.00;;;25.00
23208;BMP180;11773;52.570;13.052;2023-07-24T00:32:01;100311.00;;;25.00
23208;BMP180;11773;52.570;13.052;2023-07-24T00:34:30;100319.00;;;25.00
23208;BMP180;11773;52.570;13.052;2023-07-24T00:37:00;100317.00;;;25.00
23208;BMP180;11773;52.570;13.052;2023-07-24T00:39:30;100317.00;;;25.00
23208;BMP180;11773;52.570;13.052;2023-07-24T00:41:59;100308.00;;;25.00
23208;BMP180;11773;52.570;13.052;2023-07-24T00:44:29;100305.00;;;25.10
23208;BMP180;11773;52.570;13.052;2023-07-24T00:46:58;100311.00;;;25.10
23208;BMP180;11773;52.570;13.052;2023-07-24T00:49:28;100295.00;;;25.10
23208;BMP180;11773;52.570;13.052;2023-07-24T00:51:58;100309.00;;;25.20
23208;BMP180;11773;52.570;13.052;2023-07-24T00:54:30;100297.00;;;25.20
23208;BMP180;11773;52.570;13.052;2023-07-24T00:57:03;100288.00;;;25.20
23208;BMP180;11773;52.570;13.052;2023-07-24T00:59:34;100285.00;;;25.20
23208;BMP180;11773;52.570;13.052;2023-07-24T01:02:03;100289.00;;;25.20
23208;BMP180;11773;52.570;13.052;2023-07-24T01:04:33;100292.00;;;25.20
23208;BMP180;11773;52.570;13.052;2023-07-24T01:07:03;100288.00;;;25.30
23208;BMP180;11773;52.570;13.052;2023-07-24T01:09:33;100282.00;;;25.30
23208;BMP180;11773;52.570;13.052;2023-07-24T01:12:29;100277.00;;;25.30
23208;BMP180;11773;52.570;13.052;2023-07-24T01:15:19;100275.00;;;25.30
23208;BMP180;11773;52.570;13.052;2023-07-24T01:17:53;100279.00;;;25.30
23208;BMP180;11773;52.570;13.052;2023-07-24T01:20:23;100270.00;;;25.30
23208;BMP180;11773;52.570;13.052;2023-07-24T01:23:38;100275.00;;;25.30
23208;BMP180;11773;52.570;13.052;2023-07-24T01:26:07;100270.00;;;25.30
23208;BMP180;11773;52.570;13.052;2023-07-24T01:28:37;100276.00;;;25.30
23208;BMP180;11773;52.570;13.052;2023-07-24T01:31:08;100265.00;;;25.30
23208;BMP180;11773;52.570;13.052;2023-07-24T01:33:38;100260.00;;;25.30
23208;BMP180;11773;52.570;13.052;2023-07-24T01:36:08;100262.00;;;25.30
23208;BMP180;11773;52.570;13.052;2023-07-24T01:38:39;100258.00;;;25.30
23208;BMP180;11773;52.570;13.052;2023-07-24T01:41:09;100272.00;;;25.30
23208;BMP180;11773;52.570;13.052;2023-07-24T01:43:39;100258.00;;;25.30
23208;BMP180;11773;52.570;13.052;2023-07-24T01:46:08;100279.00;;;25.30
23208;BMP180;11773;52.570;13.052;2023-07-24T01:48:38;100270.00;;;25.30
23208;BMP180;11773;52.570;13.052;2023-07-24T01:51:07;100262.00;;;25.30
23208;BMP180;11773;52.570;13.052;2023-07-24T01:53:37;100262.00;;;25.30
23208;BMP180;11773;52.570;13.052;2023-07-24T01:56:07;100263.00;;;25.30
23208;BMP180;11773;52.570;13.052;2023-07-24T01:58:36;100255.00;;;25.30
23208;BMP180;11773;52.570;13.052;2023-07-24T02:01:06;100252.00;;;25.30
23208;BMP180;11773;52.570;13.052;2023-07-24T02:03:36;100247.00;;;25.30
23208;BMP180;11773;52.570;13.052;2023-07-24T02:06:07;100248.00;;;25.30
23208;BMP180;11773;52.570;13.052;2023-07-24T02:08:37;100253.00;;;25.30
23208;BMP180;11773;52.570;13.052;2023-07-24T02:11:06;100240.00;;;25.30
23208;BMP180;11773;52.570;13.052;2023-07-24T02:13:36;100254.00;;;25.30
23208;BMP180;11773;52.570;13.052;2023-07-24T02:16:05;100248.00;;;25.30
23208;BMP180;11773;52.570;13.052;2023-07-24T02:18:36;100248.00;;;25.30
23208;BMP180;11773;52.570;13.052;2023-07-24T02:21:06;100243.00;;;25.30
23208;BMP180;11773;52.570;13.052;2023-07-24T02:23:36;100230.00;;;25.30
23208;BMP180;11773;52.570;13.052;2023-07-24T02:26:06;100241.00;;;25.30
23208;BMP180;11773;52.570;13.052;2023-07-24T02:28:35;100244.00;;;25.30
23208;BMP180;11773;52.570;13.052;2023-07-24T02:31:05;100232.00;;;25.30
23208;BMP180;11773;52.570;13.052;2023-07-24T02:33:35;100237.00;;;25.30
23208;BMP180;11773;52.570;13.052;2023-07-24T02:36:05;100239.00;;;25.30
23208;BMP180;11773;52.570;13.052;2023-07-24T02:38:34;100244.00;;;25.30
23208;BMP180;11773;52.570;13.052;2023-07-24T02:41:04;100253.00;;;25.30
23208;BMP180;11773;52.570;13.052;2023-07-24T02:43:33;100258.00;;;25.30
23208;BMP180;11773;52.570;13.052;2023-07-24T02:46:03;100249.00;;;25.30
23208;BMP180;11773;52.570;13.052;2023-07-24T02:48:33;100248.00;;;25.30
23208;BMP180;11773;52.570;13.052;2023-07-24T02:51:02;100252.00;;;25.40
23208;BMP180;11773;52.570;13.052;2023-07-24T02:53:32;100266.00;;;25.40
23208;BMP180;11773;52.570;13.052;2023-07-24T02:56:02;100252.00;;;25.40
23208;BMP180;11773;52.570;13.052;2023-07-24T02:58:32;100261.00;;;25.40
23208;BMP180;11773;52.570;13.052;2023-07-24T03:01:06;100265.00;;;25.40
23208;BMP180;11773;52.570;13.052;2023-07-24T03:03:36;100257.00;;;25.40
23208;BMP180;11773;52.570;13.052;2023-07-24T03:06:06;100255.00;;;25.40
23208;BMP180;11773;52.570;13.052;2023-07-24T03:08:36;100265.00;;;25.40
23208;BMP180;11773;52.570;13.052;2023-07-24T03:11:07;100262.00;;;25.50
23208;BMP180;11773;52.570;13.052;2023-07-24T03:13:36;100279.00;;;25.50
23208;BMP180;11773;52.570;13.052;2023-07-24T03:16:07;100261.00;;;25.50
23208;BMP180;11773;52.570;13.052;2023-07-24T03:18:37;100277.00;;;25.50
23208;BMP180;11773;52.570;13.052;2023-07-24T03:21:07;100276.00;;;25.50
23208;BMP180;11773;52.570;13.052;2023-07-24T03:23:36;100268.00;;;25.50
23208;BMP180;11773;52.570;13.052;2023-07-24T03:26:06;100270.00;;;25.50
23208;BMP180;11773;52.570;13.052;2023-07-24T03:28:35;100267.00;;;25.50
23208;BMP180;11773;52.570;13.052;2023-07-24T03:31:05;100272.00;;;25.50
23208;BMP180;11773;52.570;13.052;2023-07-24T03:33:34;100272.00;;;25.60
23208;BMP180;11773;52.570;13.052;2023-07-24T03:36:04;100268.00;;;25.60
23208;BMP180;11773;52.570;13.052;2023-07-24T03:38:34;100276.00;;;25.60
23208;BMP180;11773;52.570;13.052;2023-07-24T03:41:03;100269.00;;;25.60
23208;BMP180;11773;52.570;13.052;2023-07-24T03:43:33;100281.00;;;25.60
23208;BMP180;11773;52.570;13.052;2023-07-24T03:46:03;100284.00;;;25.60
23208;BMP180;11773;52.570;13.052;2023-07-24T03:48:32;100274.00;;;25.60
23208;BMP180;11773;52.570;13.052;2023-07-24T03:51:03;100269.00;;;25.60
23208;BMP180;11773;52.570;13.052;2023-07-24T03:53:33;100273.00;;;25.60
23208;BMP180;11773;52.570;13.052;2023-07-24T03:56:02;100267.00;;;25.60
23208;BMP180;11773;52.570;13.052;2023-07-24T03:58:32;100271.00;;;25.60
23208;BMP180;11773;52.570;13.052;2023-07-24T04:01:02;100278.00;;;25.60
23208;BMP180;11773;52.570;13.052;2023-07-24T04:03:31;100265.00;;;25.60
23208;BMP180;11773;52.570;13.052;2023-07-24T04:06:01;100272.00;;;25.60
23208;BMP180;11773;52.570;13.052;2023-07-24T04:08:31;100280.00;;;25.60
23208;BMP180;11773;52.570;13.052;2023-07-24T04:11:01;100269.00;;;25.70
23208;BMP180;11773;52.570;13.052;2023-07-24T04:13:32;100282.00;;;25.70
23208;BMP180;11773;52.570;13.052;2023-07-24T04:16:01;100286.00;;;25.70
23208;BMP180;11773;52.570;13.052;2023-07-24T04:18:31;100275.00;;;25.70
23208;BMP180;11773;52.570;13.052;2023-07-24T04:21:01;100273.00;;;25.70
23208;BMP180;11773;52.570;13.052;2023-07-24T04:23:30;100297.00;;;25.70
23208;BMP180;11773;52.570;13.052;2023-07-24T04:26:00;100297.00;;;25.70
23208;BMP180;11773;52.570;13.052;2023-07-24T04:28:29;100289.00;;;25.80
23208;BMP180;11773;52.570;13.052;2023-07-24T04:31:01;100278.00;;;25.80
23208;BMP180;11773;52.570;13.052;2023-07-24T04:33:31;100281.00;;;25.80
23208;BMP180;11773;52.570;13.052;2023-07-24T04:36:01;100275.00;;;25.80
23208;BMP180;11773;52.570;13.052;2023-07-24T04:38:30;100263.00;;;25.80
23208;BMP180;11773;52.570;13.052;2023-07-24T04:41:03;100262.00;;;25.80
23208;BMP180;11773;52.570;13.052;2023-07-24T04:43:32;100270.00;;;25.90
23208;BMP180;11773;52.570;13.052;2023-07-24T04:46:02;100264.00;;;25.90
23208;BMP180;11773;52.570;13.052;2023-07-24T04:48:32;100255.00;;;25.90
23208;BMP180;11773;52.570;13.052;2023-07-24T04:51:01;100256.00;;;25.90
23208;BMP180;11773;52.570;13.052;2023-07-24T04:53:31;100260.00;;;25.90
23208;BMP180;11773;52.570;13.052;2023-07-24T04:56:00;100260.00;;;26.00
23208;BMP180;11773;52.570;13.052;2023-07-24T04:58:30;100255.00;;;26.00
23208;BMP180;11773;52.570;13.052;2023-07-24T05:01:04;100259.00;;;26.00
23208;BMP180;11773;52.570;13.052;2023-07-24T05:03:34;100246.00;;;26.00
23208;BMP180;11773;52.570;13.052;2023-07-24T05:06:03;100250.00;;;26.10
23208;BMP180;11773;52.570;13.052;2023-07-24T05:08:33;100247.00;;;26.10
23208;BMP180;11773;52.570;13.052;2023-07-24T05:11:02;100248.00;;;26.10
23208;BMP180;11773;52.570;13.052;2023-07-24T05:13:32;100242.00;;;26.20
23208;BMP180;11773;52.570;13.052;2023-07-24T05:16:01;100243.00;;;26.20
23208;BMP180;11773;52.570;13.052;2023-07-24T05:18:31;100232.00;;;26.30
23208;BMP180;11773;52.570;13.052;2023-07-24T05:21:01;100236.00;;;26.30
23208;BMP180;11773;52.570;13.052;2023-07-24T05:23:30;100235.00;;;26.40
23208;BMP180;11773;52.570;13.052;2023-07-24T05:26:24;100236.00;;;26.40
23208;BMP180;11773;52.570;13.052;2023-07-24T05:28:53;100231.00;;;26.40
23208;BMP180;11773;52.570;13.052;2023-07-24T05:31:23;100243.00;;;26.50
23208;BMP180;11773;52.570;13.052;2023-07-24T05:33:52;100237.00;;;26.50
23208;BMP180;11773;52.570;13.052;2023-07-24T05:36:22;100223.00;;;26.60
23208;BMP180;11773;52.570;13.052;2023-07-24T05:38:52;100218.00;;;26.70
23208;BMP180;11773;52.570;13.052;2023-07-24T05:41:22;100224.00;;;26.80
23208;BMP180;11773;52.570;13.052;2023-07-24T05:43:51;100230.00;;;27.00
23208;BMP180;11773;52.570;13.052;2023-07-24T05:46:21;100218.00;;;27.10
23208;BMP180;11773;52.570;13.052;2023-07-24T05:48:51;100232.00;;;27.30
23208;BMP180;11773;52.570;13.052;2023-07-24T05:51:21;100224.00;;;27.40
23208;BMP180;11773;52.570;13.052;2023-07-24T05:53:50;100210.00;;;27.50
23208;BMP180;11773;52.570;13.052;2023-07-24T05:56:20;100209.00;;;27.50
23208;BMP180;11773;52.570;13.052;2023-07-24T05:58:50;100212.00;;;27.60
23208;BMP180;11773;52.570;13.052;2023-07-24T06:01:20;100211.00;;;27.60
23208;BMP180;11773;52.570;13.052;2023-07-24T06:03:50;100215.00;;;27.70
23208;BMP180;11773;52.570;13.052;2023-07-24T06:06:19;100215.00;;;27.90
23208;BMP180;11773;52.570;13.052;2023-07-24T06:08:49;100221.00;;;28.00
23208;BMP180;11773;52.570;13.052;2023-07-24T06:11:19;100200.00;;;28.20
23208;BMP180;11773;52.570;13.052;2023-07-24T06:13:48;100198.00;;;28.40
23208;BMP180;11773;52.570;13.052;2023-07-24T06:16:18;100198.00;;;28.60
23208;BMP180;11773;52.570;13.052;2023-07-24T06:18:48;100196.00;;;28.80
23208;BMP180;11773;52.570;13.052;2023-07-24T06:21:17;100205.00;;;29.00
23208;BMP180;11773;52.570;13.052;2023-07-24T06:23:47;100203.00;;;29.20
23208;BMP180;11773;52.570;13.052;2023-07-24T06:26:16;100193.00;;;29.40
23208;BMP180;11773;52.570;13.052;2023-07-24T06:28:46;100188.00;;;29.60
23208;BMP180;11773;52.570;13.052;2023-07-24T06:31:16;100199.00;;;29.90
23208;BMP180;11773;52.570;13.052;2023-07-24T06:33:45;100194.00;;;30.00
23208;BMP180;11773;52.570;13.052;2023-07-24T06:36:15;100196.00;;;30.20
23208;BMP180;11773;52.570;13.052;2023-07-24T06:38:44;100188.00;;;30.40
23208;BMP180;11773;52.570;13.052;2023-07-24T06:41:16;100185.00;;;30.60
23208;BMP180;11773;52.570;13.052;2023-07-24T06:43:46;100187.00;;;30.70
23208;BMP180;11773;52.570;13.052;2023-07-24T06:46:15;100182.00;;;30.80
23208;BMP180;11773;52.570;13.052;2023-07-24T06:48:45;100180.00;;;31.00
23208;BMP180;11773;52.570;13.052;2023-07-24T06:51:15;100173.00;;;31.10
23208;BMP180;11773;52.570;13.052;2023-07-24T06:53:44;100166.00;;;31.20
23208;BMP180;11773;52.570;13.052;2023-07-24T06:56:14;100169.00;;;31.40
23208;BMP180;11773;52.570;13.052;2023-07-24T06:58:43;100163.00;;;31.50
23208;BMP180;11773;52.570;13.052;2023-07-24T07:01:13;100158.00;;;31.60
23208;BMP180;11773;52.570;13.052;2023-07-24T07:03:43;100154.00;;;31.70
23208;BMP180;11773;52.570;13.052;2023-07-24T07:06:12;100153.00;;;31.80
23208;BMP180;11773;52.570;13.052;2023-07-24T07:08:43;100156.00;;;31.90
23208;BMP180;11773;52.570;13.052;2023-07-24T07:11:13;100153.00;;;32.00
23208;BMP180;11773;52.570;13.052;2023-07-24T07:13:42;100157.00;;;32.10
23208;BMP180;11773;52.570;13.052;2023-07-24T07:16:12;100155.00;;;32.10
23208;BMP180;11773;52.570;13.052;2023-07-24T07:18:42;100158.00;;;32.20
23208;BMP180;11773;52.570;13.052;2023-07-24T07:21:11;100144.00;;;32.20
23208;BMP180;11773;52.570;13.052;2023-07-24T07:23:41;100154.00;;;32.30
23208;BMP180;11773;52.570;13.052;2023-07-24T07:26:12;100149.00;;;32.30
23208;BMP180;11773;52.570;13.052;2023-07-24T07:28:42;100152.00;;;32.30
23208;BMP180;11773;52.570;13.052;2023-07-24T07:31:13;100152.00;;;32.40
23208;BMP180;11773;52.570;13.052;2023-07-24T07:33:42;100148.00;;;32.40
23208;BMP180;11773;52.570;13.052;2023-07-24T07:36:12;100171.00;;;32.40
23208;BMP180;11773;52.570;13.052;2023-07-24T07:38:41;100162.00;;;32.40
23208;BMP180;11773;52.570;13.052;2023-07-24T07:41:11;100158.00;;;32.50
23208;BMP180;11773;52.570;13.052;2023-07-24T07:43:41;100145.00;;;32.50
23208;BMP180;11773;52.570;13.052;2023-07-24T07:46:10;100150.00;;;32.60
23208;BMP180;11773;52.570;13.052;2023-07-24T07:48:40;100160.00;;;32.70
23208;BMP180;11773;52.570;13.052;2023-07-24T07:51:10;100165.00;;;32.70
23208;BMP180;11773;52.570;13.052;2023-07-24T07:53:39;100166.00;;;32.70
23208;BMP180;11773;52.570;13.052;2023-07-24T07:56:09;100182.00;;;32.80
23208;BMP180;11773;52.570;13.052;2023-07-24T07:58:38;100173.00;;;32.80
23208;BMP180;11773;52.570;13.052;2023-07-24T08:01:08;100169.00;;;32.80
23208;BMP180;11773;52.570;13.052;2023-07-24T08:03:38;100157.00;;;32.80
23208;BMP180;11773;52.570;13.052;2023-07-24T08:06:07;100154.00;;;32.70
23208;BMP180;11773;52.570;13.052;2023-07-24T08:08:37;100151.00;;;32.70
23208;BMP180;11773;52.570;13.052;2023-07-24T08:11:07;100146.00;;;32.70
23208;BMP180;11773;52.570;13.052;2023-07-24T08:13:37;100148.00;;;32.60
23208;BMP180;11773;52.570;13.052;2023-07-24T08:16:17;100145.00;;;32.60
23208;BMP180;11773;52.570;13.052;2023-07-24T08:18:50;100150.00;;;32.50
23208;BMP180;11773;52.570;13.052;2023-07-24T08:21:20;100161.00;;;32.50
23208;BMP180;11773;52.570;13.052;2023-07-24T08:23:49;100152.00;;;32.50
23208;BMP180;11773;52.570;13.052;2023-07-24T08:26:19;100146.00;;;32.50
23208;BMP180;11773;52.570;13.052;2023-07-24T08:28:48;100141.00;;;32.40
23208;BMP180;11773;52.570;13.052;2023-07-24T08:31:18;100149.00;;;32.40
23208;BMP180;11773;52.570;13.052;2023-07-24T08:33:47;100126.00;;;32.30
23208;BMP180;11773;52.570;13.052;2023-07-24T08:36:17;100134.00;;;32.30
23208;BMP180;11773;52.570;13.052;2023-07-24T08:38:47;100129.00;;;32.30
23208;BMP180;11773;52.570;13.052;2023-07-24T08:41:16;100110.00;;;32.20
23208;BMP180;11773;52.570;13.052;2023-07-24T08:43:46;100119.00;;;32.20
23208;BMP180;11773;52.570;13.052;2023-07-24T08:46:16;100120.00;;;32.10
23208;BMP180;11773;52.570;13.052;2023-07-24T08:48:47;100102.00;;;32.10
23208;BMP180;11773;52.570;13.052;2023-07-24T08:51:17;100102.00;;;32.10
23208;BMP180;11773;52.570;13.052;2023-07-24T08:53:53;100099.00;;;32.00
23208;BMP180;11773;52.570;13.052;2023-07-24T08:56:23;100087.00;;;32.00
23208;BMP180;11773;52.570;13.052;2023-07-24T08:58:53;100090.00;;;32.00
23208;BMP180;11773;52.570;13.052;2023-07-24T09:01:23;100092.00;;;32.00
23208;BMP180;11773;52.570;13.052;2023-07-24T09:03:52;100091.00;;;31.90
23208;BMP180;11773;52.570;13.052;2023-07-24T09:06:22;100096.00;;;31.90
23208;BMP180;11773;52.570;13.052;2023-07-24T09:08:54;100083.00;;;31.90
23208;BMP180;11773;52.570;13.052;2023-07-24T09:11:23;100083.00;;;31.90
23208;BMP180;11773;52.570;13.052;2023-07-24T09:13:53;100081.00;;;31.90
23208;BMP180;11773;52.570;13.052;2023-07-24T09:16:25;100092.00;;;32.00
23208;BMP180;11773;52.570;13.052;2023-07-24T09:18:56;100068.00;;;32.00
23208;BMP180;11773;52.570;13.052;2023-07-24T09:21:32;100070.00;;;32.00
23208;BMP180;11773;52.570;13.052;2023-07-24T09:24:13;100066.00;;;32.10
23208;BMP180;11773;52.570;13.052;2023-07-24T09:26:53;100066.00;;;32.10
23208;BMP180;11773;52.570;13.052;2023-07-24T09:29:33;100067.00;;;32.10
23208;BMP180;11773;52.570;13.052;2023-07-24T09:32:03;100059.00;;;32.20
23208;BMP180;11773;52.570;13.052;2023-07-24T09:34:33;100061.00;;;32.20
23208;BMP180;11773;52.570;13.052;2023-07-24T09:37:03;100075.00;;;32.30
23208;BMP180;11773;52.570;13.052;2023-07-24T09:39:32;100070.00;;;32.30
23208;BMP180;11773;52.570;13.052;2023-07-24T09:42:06;100052.00;;;32.40
23208;BMP180;11773;52.570;13.052;2023-07-24T09:44:36;100076.00;;;32.50
23208;BMP180;11773;52.570;13.052;2023-07-24T09:47:06;100058.00;;;32.50
23208;BMP180;11773;52.570;13.052;2023-07-24T09:49:37;100057.00;;;32.60
23208;BMP180;11773;52.570;13.052;2023-07-24T09:52:09;100055.00;;;32.60
23208;BMP180;11773;52.570;13.052;2023-07-24T09:54:53;100037.00;;;32.70
23208;BMP180;11773;52.570;13.052;2023-07-24T09:57:18;100028.00;;;32.70
23208;BMP180;11773;52.570;13.052;2023-07-24T09:59:50;100031.00;;;32.70
23208;BMP180;11773;52.570;13.052;2023-07-24T10:02:23;100033.00;;;32.70
23208;BMP180;11773;52.570;13.052;2023-07-24T10:04:55;100024.00;;;32.70
23208;BMP180;11773;52.570;13.052;2023-07-24T10:07:25;100016.00;;;32.70
23208;BMP180;11773;52.570;13.052;2023-07-24T10:09:56;100013.00;;;32.70
23208;BMP180;11773;52.570;13.052;2023-07-24T10:12:26;100002.00;;;32.70
23208;BMP180;11773;52.570;13.052;2023-07-24T10:14:57;99991.00;;;32.80
23208;BMP180;11773;52.570;13.052;2023-07-24T10:17:38;99995.00;;;32.80
23208;BMP180;11773;52.570;13.052;2023-07-24T10:20:10;99995.00;;;32.90
23208;BMP180;11773;52.570;13.052;2023-07-24T10:22:43;99986.00;;;32.90
23208;BMP180;11773;52.570;13.052;2023-07-24T10:25:13;99977.00;;;32.90
23208;BMP180;11773;52.570;13.052;2023-07-24T10:27:46;99979.00;;;33.00
23208;BMP180;11773;52.570;13.052;2023-07-24T10:30:27;99984.00;;;33.00
23208;BMP180;11773;52.570;13.052;2023-07-24T10:32:52;99977.00;;;33.00
23208;BMP180;11773;52.570;13.052;2023-07-24T10:35:23;99958.00;;;33.00
23208;BMP180;11773;52.570;13.052;2023-07-24T10:38:03;99962.00;;;33.00
23208;BMP180;11773;52.570;13.052;2023-07-24T10:40:33;99956.00;;;33.10
23208;BMP180;11773;52.570;13.052;2023-07-24T10:43:17;99951.00;;;33.10
23208;BMP180;11773;52.570;13.052;2023-07-24T10:45:53;99943.00;;;33.10
23208;BMP180;11773;52.570;13.052;2023-07-24T10:48:26;99946.00;;;33.20
23208;BMP180;11773;52.570;13.052;2023-07-24T10:50:55;99937.00;;;33.20
23208;BMP180;11773;52.570;13.052;2023-07-24T10:53:25;99932.00;;;33.20
23208;BMP180;11773;52.570;13.052;2023-07-24T10:55:55;99934.00;;;33.20
23208;BMP180;11773;52.570;13.052;2023-07-24T10:58:27;99908.00;;;33.20
23208;BMP180;11773;52.570;13.052;2023-07-24T11:00:57;99926.00;;;33.20
23208;BMP180;11773;52.570;13.052;2023-07-24T11:03:28;99921.00;;;33.20
23208;BMP180;11773;52.570;13.052;2023-07-24T11:05:59;99923.00;;;33.30
23208;BMP180;11773;52.570;13.052;2023-07-24T11:08:29;99907.00;;;33.30
23208;BMP180;11773;52.570;13.052;2023-07-24T11:10:59;99912.00;;;33.30
23208;BMP180;11773;52.570;13.052;2023-07-24T11:13:30;99904.00;;;33.30
23208;BMP180;11773;52.570;13.052;2023-07-24T11:16:06;99902.00;;;33.30
23208;BMP180;11773;52.570;13.052;2023-07-24T11:18:48;99886.00;;;33.30
23208;BMP180;11773;52.570;13.052;2023-07-24T11:21:23;99892.00;;;33.30
23208;BMP180;11773;52.570;13.052;2023-07-24T11:23:54;99889.00;;;33.30
23208;BMP180;11773;52.570;13.052;2023-07-24T11:26:26;99892.00;;;33.30
23208;BMP180;11773;52.570;13.052;2023-07-24T11:28:56;99888.00;;;33.30
23208;BMP180;11773;52.570;13.052;2023-07-24T11:31:26;99873.00;;;33.30
23208;BMP180;11773;52.570;13.052;2023-07-24T11:33:58;99870.00;;;33.20
23208;BMP180;11773;52.570;13.052;2023-07-24T11:36:27;99877.00;;;33.20
23208;BMP180;11773;52.570;13.052;2023-07-24T11:38:57;99876.00;;;33.20
23208;BMP180;11773;52.570;13.052;2023-07-24T11:41:27;99884.00;;;33.10
23208;BMP180;11773;52.570;13.052;2023-07-24T11:43:57;99884.00;;;33.10
23208;BMP180;11773;52.570;13.052;2023-07-24T11:46:28;99931.00;;;33.00
23208;BMP180;11773;52.570;13.052;2023-07-24T11:49:00;99948.00;;;32.90
23208;BMP180;11773;52.570;13.052;2023-07-24T11:51:30;99944.00;;;32.90
23208;BMP180;11773;52.570;13.052;2023-07-24T11:54:11;99950.00;;;32.70
23208;BMP180;11773;52.570;13.052;2023-07-24T11:56:42;99959.00;;;32.60
23208;BMP180;11773;52.570;13.052;2023-07-24T11:59:15;99977.00;;;32.50
23208;BMP180;11773;52.570;13.052;2023-07-24T12:01:48;100007.00;;;32.30
23208;BMP180;11773;52.570;13.052;2023-07-24T12:04:18;100016.00;;;32.20
23208;BMP180;11773;52.570;13.052;2023-07-24T12:06:49;99958.00;;;32.00
23208;BMP180;11773;52.570;13.052;2023-07-24T12:09:18;99963.00;;;31.80
23208;BMP180;11773;52.570;13.052;2023-07-24T12:11:48;99965.00;;;31.70
23208;BMP180;11773;52.570;13.052;2023-07-24T12:14:17;99958.00;;;31.60
23208;BMP180;11773;52.570;13.052;2023-07-24T12:16:47;99954.00;;;31.40
23208;BMP180;11773;52.570;13.052;2023-07-24T12:19:17;99958.00;;;31.40
23208;BMP180;11773;52.570;13.052;2023-07-24T12:21:47;99951.00;;;31.30
23208;BMP180;11773;52.570;13.052;2023-07-24T12:24:17;99946.00;;;31.30
23208;BMP180;11773;52.570;13.052;2023-07-24T12:26:46;99941.00;;;31.20
23208;BMP180;11773;52.570;13.052;2023-07-24T12:29:16;99940.00;;;31.20
23208;BMP180;11773;52.570;13.052;2023-07-24T12:31:46;99949.00;;;31.20
23208;BMP180;11773;52.570;13.052;2023-07-24T12:34:15;99953.00;;;31.20
23208;BMP180;11773;52.570;13.052;2023-07-24T12:36:45;99942.00;;;31.20
23208;BMP180;11773;52.570;13.052;2023-07-24T12:39:16;99931.00;;;31.20
23208;BMP180;11773;52.570;13.052;2023-07-24T12:41:45;99940.00;;;31.30
23208;BMP180;11773;52.570;13.052;2023-07-24T12:44:15;99942.00;;;31.30
23208;BMP180;11773;52.570;13.052;2023-07-24T12:46:44;99932.00;;;31.30
23208;BMP180;11773;52.570;13.052;2023-07-24T12:49:14;99920.00;;;31.40
23208;BMP180;11773;52.570;13.052;2023-07-24T12:51:43;99909.00;;;31.40
23208;BMP180;11773;52.570;13.052;2023-07-24T12:54:13;99926.00;;;31.40
23208;BMP180;11773;52.570;13.052;2023-07-24T12:56:44;99918.00;;;31.50
23208;BMP180;11773;52.570;13.052;2023-07-24T12:59:14;99925.00;;;31.50
23208;BMP180;11773;52.570;13.052;2023-07-24T13:01:44;99924.00;;;31.50
23208;BMP180;11773;52.570;13.052;2023-07-24T13:04:13;99918.00;;;31.60
23208;BMP180;11773;52.570;13.052;2023-07-24T13:06:43;99924.00;;;31.60
23208;BMP180;11773;52.570;13.052;2023-07-24T13:09:13;99913.00;;;31.60
23208;BMP180;11773;52.570;13.052;2023-07-24T13:11:43;99912.00;;;31.60
23208;BMP180;11773;52.570;13.052;2023-07-24T13:14:14;99918.00;;;31.60
23208;BMP180;11773;52.570;13.052;2023-07-24T13:16:44;99906.00;;;31.70
23208;BMP180;11773;52.570;13.052;2023-07-24T13:19:14;99900.00;;;31.80
23208;BMP180;11773;52.570;13.052;2023-07-24T13:21:48;99901.00;;;31.80
23208;BMP180;11773;52.570;13.052;2023-07-24T13:24:17;99900.00;;;31.90
23208;BMP180;11773;52.570;13.052;2023-07-24T13:26:47;99891.00;;;31.90
23208;BMP180;11773;52.570;13.052;2023-07-24T13:29:16;99883.00;;;31.90
23208;BMP180;11773;52.570;13.052;2023-07-24T13:31:46;99869.00;;;32.00
23208;BMP180;11773;52.570;13.052;2023-07-24T13:34:15;99877.00;;;32.00
23208;BMP180;11773;52.570;13.052;2023-07-24T13:36:47;99860.00;;;32.00
23208;BMP180;11773;52.570;13.052;2023-07-24T13:39:16;99866.00;;;32.10
23208;BMP180;11773;52.570;13.052;2023-07-24T13:41:46;99856.00;;;32.10
23208;BMP180;11773;52.570;13.052;2023-07-24T13:44:16;99861.00;;;32.20
23208;BMP180;11773;52.570;13.052;2023-07-24T13:46:45;99863.00;;;32.20
23208;BMP180;11773;52.570;13.052;2023-07-24T13:49:15;99858.00;;;32.20
23208;BMP180;11773;52.570;13.052;2023-07-24T13:51:44;99846.00;;;32.30
23208;BMP180;11773;52.570;13.052;2023-07-24T13:54:14;99836.00;;;32.30
23208;BMP180;11773;52.570;13.052;2023-07-24T13:56:43;99824.00;;;32.40
23208;BMP180;11773;52.570;13.052;2023-07-24T13:59:13;99835.00;;;32.40
23208;BMP180;11773;52.570;13.052;2023-07-24T14:01:42;99812.00;;;32.40
23208;BMP180;11773;52.570;13.052;2023-07-24T14:04:13;99822.00;;;32.40
23208;BMP180;11773;52.570;13.052;2023-07-24T14:06:43;99805.00;;;32.40